createdAt,value
2022-09-26T00:00:40.909Z,94799.69
2022-09-26T00:04:32.777Z,94809.78
2022-09-26T00:08:16.901Z,94799.81
2022-09-26T00:11:59.803Z,94784.16
2022-09-26T00:15:46.015Z,94796.75
2022-09-26T00:19:32.360Z,94787.25
2022-09-26T00:23:15.238Z,94791.72
2022-09-26T00:26:58.082Z,94778.63
2022-09-26T00:30:41.036Z,94785.06
2022-09-26T00:34:23.762Z,94775.63
2022-09-26T00:38:08.413Z,94777.47
2022-09-26T00:41:51.185Z,94782.81
2022-09-26T00:45:33.981Z,94766.66
2022-09-26T00:49:27.305Z,94773.06
2022-09-26T00:53:13.819Z,94763.28
2022-09-26T00:56:59.543Z,94768.41
2022-09-26T01:00:51.131Z,94760.94
2022-09-26T01:04:35.205Z,94750.41
2022-09-26T01:08:27.250Z,94756.13
2022-09-26T01:12:13.707Z,94750.84
2022-09-26T01:15:59.638Z,94746.47
2022-09-26T01:19:52.999Z,94754.97
2022-09-26T01:24:08.557Z,94753.94
2022-09-26T01:28:10.286Z,94747.28
2022-09-26T01:32:16.837Z,94748.53
2022-09-26T01:36:11.655Z,94752.97
2022-09-26T01:40:01.981Z,94742.81
2022-09-26T01:43:50.598Z,94739.59
2022-09-26T01:47:42.639Z,94738.00
2022-09-26T01:51:28.236Z,94731.13
2022-09-26T01:55:16.789Z,94736.22
2022-09-26T01:59:02.480Z,94734.03
2022-09-26T02:02:50.321Z,94727.31
2022-09-26T02:06:37.486Z,94730.78
2022-09-26T02:10:38.218Z,94732.38
2022-09-26T02:14:23.258Z,94725.88
2022-09-26T02:18:14.174Z,94724.69
2022-09-26T02:21:59.790Z,94721.25
2022-09-26T02:25:43.205Z,94728.31
2022-09-26T02:29:26.219Z,94719.41
2022-09-26T02:33:10.877Z,94714.16
2022-09-26T02:36:55.759Z,94705.63
2022-09-26T02:40:43.008Z,94714.97
2022-09-26T02:44:39.010Z,94710.31
2022-09-26T02:48:30.572Z,94713.97
2022-09-26T02:52:21.758Z,94705.09
2022-09-26T02:56:10.321Z,94713.44
2022-09-26T02:59:59.769Z,94711.81
2022-09-26T03:03:45.965Z,94709.78
2022-09-26T03:07:31.555Z,94703.41
2022-09-26T03:11:17.298Z,94710.88
2022-09-26T03:15:00.890Z,94716.94
2022-09-26T03:18:51.329Z,94714.75
2022-09-26T03:22:34.108Z,94700.56
2022-09-26T03:26:20.326Z,94702.63
2022-09-26T03:30:03.034Z,94700.56
2022-09-26T03:33:47.392Z,94708.47
2022-09-26T03:37:30.121Z,94693.13
2022-09-26T03:41:12.764Z,94694.88
2022-09-26T03:44:58.050Z,94690.63
2022-09-26T03:48:41.055Z,94689.31
2022-09-26T03:52:26.147Z,94687.66
2022-09-26T03:56:10.324Z,94684.78
2022-09-26T03:59:53.047Z,94684.78
2022-09-26T04:03:36.421Z,94684.78
2022-09-26T04:07:19.133Z,94677.78
2022-09-26T04:11:04.292Z,94671.94
2022-09-26T04:14:47.029Z,94663.38
2022-09-26T04:18:31.055Z,94662.72
2022-09-26T04:22:13.805Z,94661.13
2022-09-26T04:25:56.718Z,94654.38
2022-09-26T04:29:40.767Z,94648.25
2022-09-26T04:33:23.468Z,94647.75
2022-09-26T04:37:06.180Z,94638.47
2022-09-26T04:40:48.923Z,94642.72
2022-09-26T04:44:32.723Z,94640.97
2022-09-26T04:48:16.938Z,94644.75
2022-09-26T04:51:59.612Z,94636.28
2022-09-26T04:55:44.870Z,94648.84
2022-09-26T04:59:27.538Z,94645.28
2022-09-26T05:03:10.632Z,94641.41
2022-09-26T05:06:57.871Z,94639.94
2022-09-26T05:10:40.845Z,94642.78
2022-09-26T05:14:23.555Z,94657.31
2022-09-26T05:18:09.502Z,94638.69
2022-09-26T05:21:52.287Z,94646.34
2022-09-26T05:25:58.095Z,94647.53
2022-09-26T05:29:40.895Z,94658.94
2022-09-26T05:33:26.574Z,94647.41
2022-09-26T05:37:09.410Z,94648.22
2022-09-26T05:40:59.334Z,94657.13
2022-09-26T05:44:42.144Z,94664.88
2022-09-26T05:48:25.467Z,94658.72
2022-09-26T05:52:08.192Z,94656.31
2022-09-26T05:55:51.223Z,94646.81
2022-09-26T05:59:35.284Z,94643.03
2022-09-26T06:03:20.146Z,94652.97
2022-09-26T06:07:03.232Z,94645.50
2022-09-26T06:10:45.938Z,94651.94
2022-09-26T06:14:29.593Z,94650.34
2022-09-26T06:18:13.643Z,94660.25
2022-09-26T06:21:56.464Z,94656.16
2022-09-26T06:25:39.331Z,94664.19
2022-09-26T06:29:22.059Z,94653.66
2022-09-26T06:33:05.144Z,94643.59
2022-09-26T06:36:49.292Z,94648.72
2022-09-26T06:40:33.620Z,94654.13
2022-09-26T06:44:17.148Z,94659.72
2022-09-26T06:48:01.788Z,94643.94
2022-09-26T06:51:49.985Z,94640.28
2022-09-26T06:55:32.756Z,94652.78
2022-09-26T06:59:16.983Z,94650.00
2022-09-26T07:02:59.798Z,94660.91
2022-09-26T07:06:42.810Z,94658.41
2022-09-26T07:10:28.099Z,94649.41
2022-09-26T07:14:10.948Z,94644.22
2022-09-26T07:17:53.674Z,94637.28
2022-09-26T07:21:39.309Z,94644.13
2022-09-26T07:25:22.201Z,94639.25
2022-09-26T07:29:08.520Z,94630.47
2022-09-26T07:32:53.297Z,94635.44
2022-09-26T07:36:36.293Z,94638.75
2022-09-26T07:40:20.814Z,94634.34
2022-09-26T07:44:58.908Z,94635.25
2022-09-26T07:48:40.076Z,94631.13
2022-09-26T07:52:22.913Z,94638.34
2022-09-26T07:56:10.551Z,94633.53
2022-09-26T07:59:54.300Z,94628.97
2022-09-26T08:03:38.917Z,94628.75
2022-09-26T08:07:21.835Z,94633.69
2022-09-26T08:11:05.585Z,94624.41
2022-09-26T08:14:49.644Z,94631.56
2022-09-26T08:18:32.459Z,94619.53
2022-09-26T08:22:16.534Z,94619.13
2022-09-26T08:25:59.261Z,94612.38
2022-09-26T08:29:42.240Z,94613.97
2022-09-26T08:33:25.255Z,94620.97
2022-09-26T08:37:11.254Z,94622.09
2022-09-26T08:40:59.743Z,94615.22
2022-09-26T08:44:56.945Z,94600.91
2022-09-26T08:48:52.340Z,94606.19
2022-09-26T08:52:39.086Z,94609.97
2022-09-26T08:56:30.327Z,94593.44
2022-09-26T09:00:20.173Z,94591.72
2022-09-26T09:04:06.520Z,94597.78
2022-09-26T09:07:54.051Z,94590.09
2022-09-26T09:11:58.692Z,94591.03
2022-09-26T09:15:54.160Z,94584.63
2022-09-26T09:19:42.679Z,94581.03
2022-09-26T09:23:42.926Z,94588.41
2022-09-26T09:27:53.220Z,94583.84
2022-09-26T09:31:39.999Z,94580.97
2022-09-26T09:35:40.033Z,94577.16
2022-09-26T09:39:28.152Z,94576.63
2022-09-26T09:43:15.772Z,94563.53
2022-09-26T09:46:58.691Z,94566.34
2022-09-26T09:50:50.218Z,94565.84
2022-09-26T09:54:41.828Z,94555.94
2022-09-26T09:58:39.884Z,94555.59
2022-09-26T10:02:31.307Z,94559.22
2022-09-26T10:06:45.793Z,94546.66
2022-09-26T10:10:21.124Z,94548.25
2022-09-26T10:14:09.368Z,94544.19
2022-09-26T10:18:23.526Z,94537.34
2022-09-26T10:22:12.409Z,94543.91
2022-09-26T10:26:00.108Z,94537.94
2022-09-26T10:29:45.597Z,94551.72
2022-09-26T10:33:33.155Z,94553.16
2022-09-26T10:37:24.366Z,94549.03
2022-09-26T10:41:07.290Z,94543.03
2022-09-26T10:44:51.730Z,94544.97
2022-09-26T10:48:43.370Z,94543.59
2022-09-26T10:52:29.185Z,94541.44
2022-09-26T10:56:13.132Z,94542.56
2022-09-26T10:59:58.539Z,94541.16
2022-09-26T11:03:44.555Z,94534.81
2022-09-26T11:07:30.327Z,94533.16
2022-09-26T11:11:17.625Z,94526.53
2022-09-26T11:15:06.432Z,94516.81
2022-09-26T11:18:54.400Z,94520.84
2022-09-26T11:22:41.684Z,94512.50
2022-09-26T11:34:36.542Z,94496.47
2022-09-26T11:38:38.284Z,94493.72
2022-09-26T11:42:31.844Z,94486.81
2022-09-26T11:46:38.607Z,94472.19
2022-09-26T11:50:35.597Z,94459.13
2022-09-26T11:54:27.293Z,94459.91
2022-09-26T11:58:15.376Z,94457.63
2022-09-26T12:02:17.956Z,94461.81
2022-09-26T12:06:04.825Z,94454.53
2022-09-26T12:10:01.413Z,94441.44
2022-09-26T12:13:52.400Z,94445.47
2022-09-26T12:17:45.220Z,94424.00
2022-09-26T12:21:36.944Z,94425.66
2022-09-26T12:25:30.233Z,94416.13
2022-09-26T12:29:23.527Z,94420.41
2022-09-26T12:33:44.148Z,94405.25
2022-09-26T12:38:01.095Z,94389.00
2022-09-26T12:41:59.083Z,94390.50
2022-09-26T12:45:57.088Z,94391.09
2022-09-26T12:49:50.642Z,94382.03
2022-09-26T12:53:46.448Z,94380.41
2022-09-26T12:57:38.664Z,94375.00
2022-09-26T13:01:37.400Z,94372.56
2022-09-26T13:05:37.123Z,94370.78
2022-09-26T13:09:30.571Z,94357.59
2022-09-26T13:13:46.375Z,94364.16
2022-09-26T13:17:32.982Z,94352.66
2022-09-26T13:21:20.117Z,94345.50
2022-09-26T13:25:19.034Z,94337.63
2022-09-26T13:29:19.903Z,94329.19
2022-09-26T13:33:08.782Z,94314.31
2022-09-26T13:36:57.360Z,94312.97
2022-09-26T13:40:47.756Z,94308.50
2022-09-26T13:44:50.098Z,94303.13
2022-09-26T13:48:50.205Z,94297.16
2022-09-26T13:52:42.688Z,94301.47
2022-09-26T13:56:46.882Z,94303.59
2022-09-26T14:00:54.590Z,94300.56
2022-09-26T14:04:37.816Z,94290.16
2022-09-26T14:08:50.691Z,94303.91
2022-09-26T14:12:35.515Z,94289.59
2022-09-26T14:16:34.863Z,94291.28
2022-09-26T14:20:21.462Z,94287.53
2022-09-26T14:24:33.438Z,94286.34
2022-09-26T14:28:22.904Z,94273.91
2022-09-26T14:32:14.928Z,94259.31
2022-09-26T14:36:19.155Z,94248.66
2022-09-26T14:40:17.858Z,94244.56
2022-09-26T14:44:04.276Z,94241.31
2022-09-26T14:47:49.138Z,94240.09
2022-09-26T14:51:33.870Z,94245.91
2022-09-26T14:55:20.600Z,94233.41
2022-09-26T14:59:27.623Z,94246.06
2022-09-26T15:03:15.318Z,94236.97
2022-09-26T15:07:02.798Z,94231.25
2022-09-26T15:10:49.124Z,94235.50
2022-09-26T15:14:36.558Z,94222.78
2022-09-26T15:18:29.744Z,94227.13
2022-09-26T15:22:14.864Z,94216.31
2022-09-26T15:26:02.547Z,94226.16
2022-09-26T15:29:47.341Z,94218.94
2022-09-26T15:33:30.321Z,94223.41
2022-09-26T15:37:18.520Z,94219.16
2022-09-26T15:41:04.331Z,94220.13
2022-09-26T15:44:49.229Z,94223.31
2022-09-26T15:48:34.380Z,94224.66
2022-09-26T15:52:17.559Z,94223.50
2022-09-26T15:56:04.302Z,94221.50
2022-09-26T15:59:47.601Z,94221.22
2022-09-26T16:03:43.863Z,94211.16
2022-09-26T16:07:30.675Z,94216.50
2022-09-26T16:11:14.862Z,94202.16
2022-09-26T16:15:03.587Z,94210.19
2022-09-26T16:18:48.092Z,94216.59
2022-09-26T16:22:51.547Z,94209.19
2022-09-26T16:26:43.081Z,94208.63
2022-09-26T16:30:42.823Z,94223.00
2022-09-26T16:34:26.081Z,94208.66
2022-09-26T16:38:30.233Z,94216.59
2022-09-26T16:42:17.307Z,94215.44
2022-09-26T16:46:03.934Z,94211.13
2022-09-26T16:49:48.287Z,94205.19
2022-09-26T16:53:31.217Z,94213.53
2022-09-26T16:57:19.888Z,94208.72
2022-09-26T17:01:20.517Z,94197.53
2022-09-26T17:05:03.346Z,94198.41
2022-09-26T17:08:46.203Z,94214.22
2022-09-26T17:12:30.509Z,94204.00
2022-09-26T17:16:13.698Z,94208.41
2022-09-26T17:19:59.389Z,94205.28
2022-09-26T17:23:43.026Z,94214.97
2022-09-26T17:27:28.187Z,94221.47
2022-09-26T17:31:19.019Z,94234.31
2022-09-26T17:35:03.765Z,94225.53
2022-09-26T17:38:46.649Z,94228.63
2022-09-26T17:42:30.297Z,94226.41
2022-09-26T17:46:16.638Z,94219.50
2022-09-26T17:49:59.746Z,94224.41
2022-09-26T17:53:50.048Z,94223.28
2022-09-26T17:57:39.548Z,94228.06
2022-09-26T18:01:28.437Z,94222.97
2022-09-26T18:05:16.863Z,94231.63
2022-09-26T18:09:01.879Z,94241.56
2022-09-26T18:12:45.245Z,94225.63
2022-09-26T18:16:29.466Z,94213.25
2022-09-26T18:20:12.310Z,94223.00
2022-09-26T18:23:58.800Z,94213.91
2022-09-26T18:27:41.773Z,94191.13
2022-09-26T18:31:28.278Z,94187.41
2022-09-26T18:35:15.928Z,94199.06
2022-09-26T18:38:58.899Z,94207.22
2022-09-26T18:42:42.155Z,94211.13
2022-09-26T18:46:25.159Z,94204.81
2022-09-26T18:50:10.673Z,94196.84
2022-09-26T18:53:55.051Z,94214.25
2022-09-26T18:57:55.352Z,94208.19
2022-09-26T19:01:41.222Z,94208.97
2022-09-26T19:05:25.425Z,94206.34
2022-09-26T19:09:13.955Z,94211.63
2022-09-26T19:12:56.926Z,94204.50
2022-09-26T19:16:39.745Z,94205.59
2022-09-26T19:20:22.533Z,94208.00
2022-09-26T19:24:09.815Z,94212.16
2022-09-26T19:27:54.058Z,94205.97
2022-09-26T19:31:37.132Z,94192.31
2022-09-26T19:35:24.523Z,94182.91
2022-09-26T19:39:11.358Z,94178.53
2022-09-26T19:42:55.064Z,94170.94
2022-09-26T19:46:38.747Z,94167.34
2022-09-26T19:50:23.085Z,94147.41
2022-09-26T19:54:06.513Z,94148.94
2022-09-26T19:57:50.931Z,94143.13
2022-09-26T20:01:33.800Z,94135.63
2022-09-26T20:05:20.297Z,94140.59
2022-09-26T20:09:03.132Z,94123.97
2022-09-26T20:12:48.365Z,94133.91
2022-09-26T20:16:34.376Z,94117.78
2022-09-26T20:20:18.187Z,94094.28
2022-09-26T20:24:01.497Z,94100.59
2022-09-26T20:27:44.454Z,94091.59
2022-09-26T20:31:29.386Z,94085.75
2022-09-26T20:35:15.345Z,94087.28
2022-09-26T20:39:00.451Z,94082.03
2022-09-26T20:42:45.325Z,94088.09
2022-09-26T20:46:30.303Z,94079.28
2022-09-26T20:50:17.798Z,94075.06
2022-09-26T20:54:01.089Z,94071.56
2022-09-26T20:57:43.975Z,94067.34
2022-09-26T21:01:28.147Z,94056.00
2022-09-26T21:05:24.428Z,94053.84
2022-09-26T21:09:07.241Z,94049.63
2022-09-26T21:12:50.399Z,94040.91
2022-09-26T21:16:33.328Z,94046.91
2022-09-26T21:20:17.423Z,94040.84
2022-09-26T21:24:02.751Z,94034.72
2022-09-26T21:27:45.818Z,94033.59
2022-09-26T21:31:30.355Z,94024.59
2022-09-26T21:35:14.959Z,94017.88
2022-09-26T21:38:57.810Z,94009.91
2022-09-26T21:42:45.185Z,94011.19
2022-09-26T21:46:28.019Z,94014.28
2022-09-26T21:50:13.131Z,94005.72
2022-09-26T21:53:59.238Z,93999.72
2022-09-26T21:57:44.402Z,93982.03
2022-09-26T22:01:27.267Z,93979.09
2022-09-26T22:05:12.147Z,93976.81
2022-09-26T22:08:54.923Z,93977.72
2022-09-26T22:12:37.767Z,93965.75
2022-09-26T22:16:22.339Z,93953.25
2022-09-26T22:20:05.925Z,93944.81
2022-09-26T22:23:49.973Z,93946.31
2022-09-26T22:27:33.222Z,93936.00
2022-09-26T22:31:16.516Z,93928.84
2022-09-26T22:35:00.715Z,93929.81
2022-09-26T22:38:43.539Z,93921.38
2022-09-26T22:42:28.360Z,93912.91
2022-09-26T22:46:13.598Z,93907.16
2022-09-26T22:50:00.874Z,93897.13
2022-09-26T22:53:46.014Z,93900.97
2022-09-26T22:57:30.165Z,93884.88
2022-09-26T23:01:15.596Z,93881.19
2022-09-26T23:04:58.393Z,93876.41
2022-09-26T23:08:46.592Z,93872.69
2022-09-26T23:12:30.262Z,93870.03
2022-09-26T23:16:16.171Z,93877.22
2022-09-26T23:20:02.749Z,93875.94
2022-09-26T23:23:49.862Z,93863.31
2022-09-26T23:27:38.897Z,93858.00
2022-09-26T23:31:22.277Z,93857.44
2022-09-26T23:35:05.739Z,93847.41
2022-09-26T23:38:50.254Z,93844.22
2022-09-26T23:42:33.133Z,93837.38
2022-09-26T23:46:16.076Z,93834.72
2022-09-26T23:49:58.997Z,93842.63
2022-09-26T23:53:41.749Z,93842.13
2022-09-26T23:57:25.862Z,93837.97
